createdAt,value
2022-12-11T00:03:53.952Z,35.33
2022-12-11T00:07:00.205Z,32.67
2022-12-11T00:10:38.033Z,34.75
2022-12-11T00:15:37.981Z,31.85
2022-12-11T00:16:56.759Z,28.13
2022-12-11T00:20:24.167Z,32.38
2022-12-11T00:22:58.206Z,31.45
2022-12-11T00:26:07.733Z,30.63
2022-12-11T00:29:47.260Z,30.52
2022-12-11T00:34:03.058Z,31.27
2022-12-11T00:36:34.204Z,42.35
2022-12-11T00:39:48.730Z,37.63
2022-12-11T00:46:14.287Z,44.58
2022-12-11T00:49:51.904Z,53.28
2022-12-11T00:52:58.944Z,40.78
2022-12-11T00:56:07.577Z,60.05
2022-12-11T00:59:01.614Z,53.05
2022-12-11T01:02:45.222Z,54.20
2022-12-11T01:06:05.989Z,34.63
2022-12-11T01:13:57.140Z,32.60
2022-12-11T01:16:49.049Z,33.58
2022-12-11T01:20:07.871Z,32.53
2022-12-11T01:26:58.062Z,34.13
2022-12-11T01:30:29.709Z,27.75
2022-12-11T01:37:10.206Z,30.05
2022-12-11T01:40:21.420Z,28.50
2022-12-11T01:43:08.869Z,33.35
2022-12-11T01:45:57.263Z,33.03
2022-12-11T01:52:03.196Z,32.55
2022-12-11T01:54:50.059Z,35.05
2022-12-11T01:57:52.078Z,34.45
2022-12-11T02:00:52.481Z,32.25
2022-12-11T02:04:13.139Z,34.92
2022-12-11T02:07:01.834Z,39.83
2022-12-11T02:09:42.050Z,29.17
2022-12-11T02:12:34.634Z,35.00
2022-12-11T02:15:26.492Z,33.50
2022-12-11T02:18:06.582Z,35.83
2022-12-11T02:21:10.138Z,32.95
2022-12-11T02:24:15.430Z,34.15
2022-12-11T02:27:19.144Z,35.70
2022-12-11T02:30:39.735Z,49.13
2022-12-11T02:33:27.219Z,51.50
2022-12-11T02:36:16.230Z,53.38
2022-12-11T02:39:42.907Z,49.08
2022-12-11T02:49:47.757Z,37.58
2022-12-11T03:17:12.634Z,36.53
2022-12-11T03:19:47.642Z,30.95
2022-12-11T03:22:58.840Z,30.48
2022-12-11T03:28:29.177Z,33.13
2022-12-11T03:30:57.279Z,29.23
2022-12-11T03:33:29.646Z,27.20
2022-12-11T03:36:01.569Z,24.08
2022-12-11T03:38:37.358Z,24.65
2022-12-11T03:41:07.253Z,23.17
2022-12-11T03:43:35.710Z,27.80
2022-12-11T03:46:03.347Z,24.83
2022-12-11T03:48:38.119Z,24.77
2022-12-11T03:51:06.934Z,22.13
2022-12-11T03:53:38.442Z,23.92
2022-12-11T03:56:11.042Z,23.67
2022-12-11T03:58:38.788Z,23.92
2022-12-11T04:01:10.583Z,25.00
2022-12-11T04:03:39.663Z,27.02
2022-12-11T04:06:06.900Z,23.45
2022-12-11T04:08:33.845Z,28.90
2022-12-11T04:11:24.691Z,27.48
2022-12-11T04:14:11.457Z,31.75
2022-12-11T04:16:38.499Z,28.30
2022-12-11T04:19:25.864Z,30.38
2022-12-11T04:22:12.523Z,29.85
2022-12-11T04:24:40.707Z,29.27
2022-12-11T04:27:07.794Z,32.08
2022-12-11T04:29:34.902Z,31.15
2022-12-11T04:32:04.621Z,31.42
2022-12-11T04:34:33.951Z,28.05
2022-12-11T04:37:00.996Z,30.23
2022-12-11T04:39:28.053Z,31.10
2022-12-11T04:41:54.885Z,30.75
2022-12-11T04:44:23.092Z,30.58
2022-12-11T04:46:50.053Z,25.85
2022-12-11T04:49:17.029Z,29.70
2022-12-11T04:51:44.007Z,35.10
2022-12-11T04:54:10.801Z,31.40
2022-12-11T04:56:40.128Z,34.22
2022-12-11T04:59:06.969Z,32.22
2022-12-11T05:01:36.301Z,29.55
2022-12-11T05:04:03.233Z,29.75
2022-12-11T05:06:30.135Z,29.27
2022-12-11T05:08:57.034Z,32.25
2022-12-11T05:11:26.614Z,31.42
2022-12-11T05:13:53.540Z,29.02
2022-12-11T05:16:20.517Z,30.77
2022-12-11T05:18:50.189Z,28.23
2022-12-11T05:21:17.360Z,31.08
2022-12-11T05:23:44.644Z,30.83
2022-12-11T05:26:17.696Z,28.75
2022-12-11T05:28:45.481Z,25.10
2022-12-11T05:31:17.157Z,31.92
2022-12-11T05:33:45.308Z,29.63
2022-12-11T05:36:27.890Z,29.80
2022-12-11T05:38:55.202Z,31.65
2022-12-11T05:41:24.676Z,32.60
2022-12-11T05:43:52.213Z,29.40
2022-12-11T05:46:24.087Z,30.50
2022-12-11T05:48:58.206Z,32.63
2022-12-11T05:51:25.352Z,32.03
2022-12-11T05:54:00.515Z,30.60
2022-12-11T05:56:30.719Z,33.58
2022-12-11T05:58:59.130Z,32.00
2022-12-11T06:01:30.531Z,31.92
2022-12-11T06:03:59.675Z,35.45
2022-12-11T06:06:30.785Z,35.95
2022-12-11T06:08:59.143Z,31.40
2022-12-11T06:11:29.002Z,32.58
2022-12-11T06:13:56.568Z,32.00
2022-12-11T06:16:26.212Z,30.35
2022-12-11T06:18:58.406Z,38.08
2022-12-11T06:21:31.576Z,34.47
2022-12-11T06:24:05.423Z,35.95
2022-12-11T06:26:33.055Z,36.88
2022-12-11T06:29:07.562Z,36.17
2022-12-11T06:31:36.164Z,37.60
2022-12-11T06:34:03.284Z,37.03
2022-12-11T06:36:32.644Z,35.35
2022-12-11T06:39:03.032Z,34.58
2022-12-11T06:41:30.382Z,35.10
2022-12-11T06:43:59.742Z,35.17
2022-12-11T06:46:29.863Z,36.72
2022-12-11T06:48:57.009Z,34.35
2022-12-11T06:51:26.463Z,32.17
2022-12-11T06:53:55.531Z,32.92
2022-12-11T06:56:23.371Z,34.15
2022-12-11T06:59:02.877Z,30.85
2022-12-11T07:01:36.205Z,32.92
2022-12-11T07:04:05.527Z,32.28
2022-12-11T07:06:40.006Z,29.13
2022-12-11T07:09:08.879Z,30.98
2022-12-11T07:11:36.023Z,29.17
2022-12-11T07:14:03.491Z,29.77
2022-12-11T07:16:30.989Z,28.27
2022-12-11T07:18:58.088Z,32.75
2022-12-11T07:21:25.236Z,30.48
2022-12-11T07:23:54.608Z,29.95
2022-12-11T07:26:32.464Z,33.17
2022-12-11T07:29:00.382Z,27.80
2022-12-11T07:31:34.287Z,29.52
2022-12-11T07:34:06.939Z,26.25
2022-12-11T07:36:35.088Z,29.90
2022-12-11T07:39:03.556Z,25.90
2022-12-11T07:41:31.841Z,26.63
2022-12-11T07:44:01.378Z,31.25
2022-12-11T07:46:33.054Z,30.25
2022-12-11T07:49:01.069Z,30.08
2022-12-11T07:51:36.216Z,27.10
2022-12-11T07:54:18.237Z,28.17
2022-12-11T07:56:53.530Z,26.40
2022-12-11T07:59:23.626Z,28.30
2022-12-11T08:01:55.160Z,29.83
2022-12-11T08:04:26.074Z,26.92
2022-12-11T08:06:59.245Z,28.58
2022-12-11T08:09:29.167Z,28.80
2022-12-11T08:12:01.290Z,29.63
2022-12-11T08:14:28.424Z,26.33
2022-12-11T08:17:03.163Z,29.77
2022-12-11T08:19:32.510Z,29.08
2022-12-11T08:22:02.582Z,25.17
2022-12-11T08:24:32.593Z,26.55
2022-12-11T08:27:02.102Z,25.83
2022-12-11T08:29:28.983Z,26.30
2022-12-11T08:31:58.651Z,27.60
2022-12-11T08:34:26.836Z,24.77
2022-12-11T08:36:55.889Z,27.92
2022-12-11T08:39:22.977Z,27.90
2022-12-11T08:42:03.756Z,28.45
2022-12-11T08:44:43.413Z,28.17
2022-12-11T08:47:15.564Z,26.85
2022-12-11T08:49:45.018Z,29.17
2022-12-11T08:52:17.435Z,27.77
2022-12-11T08:54:54.556Z,32.08
2022-12-11T08:57:28.327Z,25.77
2022-12-11T08:59:55.314Z,26.10
2022-12-11T09:02:28.034Z,31.50
2022-12-11T09:05:00.006Z,27.75
2022-12-11T09:07:32.519Z,24.27
2022-12-11T09:10:00.085Z,26.63
2022-12-11T09:12:29.688Z,28.75
2022-12-11T09:14:57.096Z,24.27
2022-12-11T09:17:32.564Z,27.95
2022-12-11T09:20:03.322Z,23.02
2022-12-11T09:22:50.832Z,23.02
2022-12-11T09:25:26.708Z,29.13
2022-12-11T09:28:02.336Z,25.42
2022-12-11T09:30:34.194Z,26.52
2022-12-11T09:33:01.435Z,28.55
2022-12-11T09:35:38.397Z,26.20
2022-12-11T09:38:14.020Z,27.45
2022-12-11T09:40:46.399Z,28.40
2022-12-11T09:43:37.895Z,28.35
2022-12-11T09:46:10.719Z,25.08
2022-12-11T09:48:46.794Z,22.45
2022-12-11T09:51:22.542Z,22.15
2022-12-11T09:53:50.522Z,21.60
2022-12-11T09:56:40.683Z,22.33
2022-12-11T09:59:32.353Z,24.75
2022-12-11T10:02:29.324Z,19.92
2022-12-11T10:05:23.719Z,19.52
2022-12-11T10:08:24.168Z,19.15
2022-12-11T10:11:22.843Z,19.73
2022-12-11T10:14:06.484Z,23.30
2022-12-11T10:16:44.106Z,19.80
2022-12-11T10:19:30.403Z,19.38
2022-12-11T10:22:18.062Z,20.35
2022-12-11T10:25:12.355Z,20.75
2022-12-11T10:27:43.436Z,18.35
2022-12-11T10:30:24.863Z,21.23
2022-12-11T10:33:22.131Z,20.88
2022-12-11T10:35:59.168Z,19.80
2022-12-11T10:38:48.919Z,19.35
2022-12-11T10:41:33.660Z,20.58
2022-12-11T10:44:01.980Z,22.23
2022-12-11T10:46:30.114Z,20.48
2022-12-11T10:49:01.130Z,21.55
2022-12-11T10:51:39.875Z,17.80
2022-12-11T10:54:34.850Z,21.67
2022-12-11T10:57:10.971Z,22.88
2022-12-11T10:59:50.509Z,20.85
2022-12-11T11:02:37.877Z,20.85
2022-12-11T11:05:49.121Z,17.95
2022-12-11T11:08:32.230Z,21.05
2022-12-11T11:11:05.717Z,21.17
2022-12-11T11:13:36.612Z,24.17
2022-12-11T11:16:15.647Z,22.48
2022-12-11T11:19:00.503Z,21.98
2022-12-11T11:21:30.155Z,20.23
2022-12-11T11:24:02.346Z,21.02
2022-12-11T11:27:04.471Z,18.30
2022-12-11T11:29:53.097Z,21.35
2022-12-11T11:32:32.470Z,20.38
2022-12-11T11:35:17.212Z,22.27
2022-12-11T11:37:56.464Z,21.75
2022-12-11T11:40:31.209Z,21.13
2022-12-11T11:43:34.400Z,20.52
2022-12-11T11:46:11.197Z,19.73
2022-12-11T11:48:48.595Z,20.55
2022-12-11T11:51:44.747Z,22.20
2022-12-11T11:54:45.278Z,22.67
2022-12-11T11:57:41.931Z,21.00
2022-12-11T12:00:37.407Z,20.63
2022-12-11T12:03:19.993Z,20.88
2022-12-11T12:06:10.889Z,22.02
2022-12-11T12:08:58.854Z,19.00
2022-12-11T12:11:52.362Z,17.38
2022-12-11T12:14:51.154Z,17.70
2022-12-11T12:17:36.442Z,16.20
2022-12-11T12:20:30.096Z,19.25
2022-12-11T12:23:27.400Z,16.65
2022-12-11T12:26:12.735Z,16.48
2022-12-11T12:29:16.192Z,18.55
2022-12-11T12:32:20.015Z,19.55
2022-12-11T12:35:25.586Z,19.50
2022-12-11T12:38:12.013Z,16.80
2022-12-11T12:41:21.344Z,15.25
2022-12-11T12:44:16.529Z,18.92
2022-12-11T12:46:57.192Z,16.50
2022-12-11T12:49:46.161Z,14.32
2022-12-11T12:52:35.941Z,16.05
2022-12-11T12:55:29.080Z,14.88
2022-12-11T12:58:24.026Z,17.88
2022-12-11T13:01:20.572Z,13.40
2022-12-11T13:04:54.981Z,14.93
2022-12-11T13:07:34.035Z,15.80
2022-12-11T13:10:04.585Z,13.23
2022-12-11T13:12:47.457Z,13.38
2022-12-11T13:15:33.283Z,14.63
2022-12-11T13:18:12.916Z,13.27
2022-12-11T13:20:48.309Z,14.68
2022-12-11T13:23:37.538Z,14.30
2022-12-11T13:26:12.895Z,14.45
2022-12-11T13:28:42.916Z,14.60
2022-12-11T13:31:18.496Z,19.30
2022-12-11T13:34:03.116Z,14.73
2022-12-11T13:36:40.229Z,15.88
2022-12-11T13:39:32.468Z,15.68
2022-12-11T13:42:07.724Z,16.58
2022-12-11T13:44:43.361Z,16.13
2022-12-11T13:47:27.008Z,14.80
2022-12-11T13:50:22.157Z,16.27
2022-12-11T13:53:03.525Z,19.60
2022-12-11T13:55:42.552Z,14.55
2022-12-11T13:58:43.682Z,17.17
2022-12-11T14:01:26.293Z,18.17
2022-12-11T14:04:50.120Z,17.13
2022-12-11T14:07:31.610Z,14.38
2022-12-11T14:10:10.118Z,15.68
2022-12-11T14:12:37.890Z,16.73
2022-12-11T14:15:20.599Z,18.67
2022-12-11T14:21:09.705Z,16.55
2022-12-11T14:24:14.087Z,16.38
2022-12-11T14:26:57.318Z,14.57
2022-12-11T14:29:39.070Z,16.73
2022-12-11T14:32:29.646Z,15.38
2022-12-11T14:35:11.936Z,13.10
2022-12-11T14:37:52.658Z,12.45
2022-12-11T14:40:30.913Z,12.52
2022-12-11T14:43:35.659Z,11.65
2022-12-11T14:46:18.869Z,9.95
2022-12-11T14:49:01.549Z,10.07
2022-12-11T14:51:46.720Z,9.43
2022-12-11T14:54:44.624Z,12.35
2022-12-11T14:58:17.108Z,11.15
2022-12-11T15:01:30.623Z,10.43
2022-12-11T15:04:35.354Z,10.60
2022-12-11T15:08:15.753Z,10.20
2022-12-11T15:11:03.544Z,10.40
2022-12-11T15:13:39.586Z,12.48
2022-12-11T15:16:14.627Z,13.27
2022-12-11T15:19:17.601Z,11.63
2022-12-11T15:22:11.669Z,13.02
2022-12-11T15:24:49.050Z,15.20
2022-12-11T15:27:51.061Z,14.40
2022-12-11T15:30:17.892Z,16.63
2022-12-11T15:32:46.999Z,14.18
2022-12-11T15:36:02.125Z,14.63
2022-12-11T15:38:36.182Z,14.63
2022-12-11T15:41:06.896Z,16.90
2022-12-11T15:43:42.546Z,18.88
2022-12-11T15:46:39.510Z,16.67
2022-12-11T15:49:13.492Z,15.90
2022-12-11T15:51:43.347Z,15.52
2022-12-11T15:54:11.174Z,17.30
2022-12-11T15:56:38.325Z,16.30
2022-12-11T15:59:13.250Z,15.50
2022-12-11T16:01:46.007Z,15.05
2022-12-11T16:04:17.175Z,16.95
2022-12-11T16:09:16.462Z,16.77
2022-12-11T16:11:44.373Z,19.88
2022-12-11T16:14:12.317Z,17.95
2022-12-11T16:16:41.991Z,17.40
2022-12-11T16:19:15.343Z,16.80
2022-12-11T16:22:07.617Z,18.45
2022-12-11T16:29:05.532Z,19.20
2022-12-11T16:31:50.259Z,20.05
2022-12-11T16:34:22.685Z,23.42
2022-12-11T16:36:53.675Z,20.27
2022-12-11T16:42:40.031Z,19.52
2022-12-11T16:45:43.596Z,23.33
2022-12-11T16:48:48.468Z,19.48
2022-12-11T16:51:22.828Z,24.08
2022-12-11T16:54:09.071Z,20.23
2022-12-11T16:56:37.957Z,21.58
2022-12-11T16:59:07.504Z,23.30
2022-12-11T17:01:36.701Z,23.02
2022-12-11T17:04:03.470Z,24.00
2022-12-11T17:06:30.181Z,22.05
2022-12-11T17:08:57.064Z,25.95
2022-12-11T17:11:28.502Z,21.13
2022-12-11T17:13:59.208Z,26.17
2022-12-11T17:16:30.631Z,22.90
2022-12-11T17:19:02.635Z,18.63
2022-12-11T17:21:38.082Z,22.66
2022-12-11T17:24:05.207Z,23.58
2022-12-11T17:26:37.179Z,19.70
2022-12-11T17:29:07.022Z,21.38
2022-12-11T17:31:34.170Z,21.67
2022-12-11T17:34:06.647Z,22.17
2022-12-11T17:36:33.704Z,26.95
2022-12-11T17:39:01.123Z,23.15
2022-12-11T17:41:28.038Z,23.00
2022-12-11T17:43:55.684Z,23.70
2022-12-11T17:46:22.716Z,26.67
2022-12-11T17:48:49.623Z,26.67
2022-12-11T17:51:21.937Z,28.40
2022-12-11T17:53:51.212Z,23.48
2022-12-11T17:56:21.817Z,23.95
2022-12-11T17:58:51.257Z,23.95
2022-12-11T18:01:18.867Z,27.10
2022-12-11T18:03:46.979Z,24.88
2022-12-11T18:06:16.179Z,24.15
2022-12-11T18:08:44.400Z,33.22
2022-12-11T18:11:24.033Z,26.38
2022-12-11T18:13:53.565Z,25.90
2022-12-11T18:16:32.720Z,27.10
2022-12-11T18:18:59.504Z,25.75
2022-12-11T18:21:29.977Z,28.90
2022-12-11T18:23:56.749Z,27.63
2022-12-11T18:26:26.287Z,28.13
2022-12-11T18:29:08.639Z,29.45
2022-12-11T18:31:41.962Z,27.90
2022-12-11T18:34:10.598Z,33.92
2022-12-11T18:36:37.448Z,29.92
2022-12-11T18:39:06.743Z,31.25
2022-12-11T18:41:40.901Z,29.35
2022-12-11T18:44:10.397Z,32.95
2022-12-11T18:46:40.658Z,35.42
2022-12-11T18:49:13.062Z,34.95
2022-12-11T18:51:42.822Z,33.50
2022-12-11T18:54:10.268Z,39.70
2022-12-11T18:56:42.709Z,32.30
2022-12-11T18:59:18.340Z,36.60
2022-12-11T19:01:50.869Z,33.55
2022-12-11T19:04:26.166Z,34.50
2022-12-11T19:06:57.903Z,40.75
2022-12-11T19:09:24.887Z,34.15
2022-12-11T19:11:52.054Z,34.03
2022-12-11T19:14:21.464Z,34.92
2022-12-11T19:17:00.156Z,36.15
2022-12-11T19:19:29.397Z,37.03
2022-12-11T19:21:56.255Z,36.63
2022-12-11T19:24:24.281Z,35.35
2022-12-11T19:26:51.441Z,33.78
2022-12-11T19:29:35.548Z,35.70
2022-12-11T19:32:09.868Z,35.78
2022-12-11T19:34:38.572Z,35.45
2022-12-11T19:37:05.657Z,35.17
2022-12-11T19:39:33.157Z,37.10
2022-12-11T19:42:00.203Z,42.72
2022-12-11T19:44:27.301Z,37.75
2022-12-11T19:46:56.753Z,35.63
2022-12-11T19:49:23.943Z,40.90
2022-12-11T19:51:51.392Z,42.53
2022-12-11T19:54:18.445Z,39.05
2022-12-11T19:56:46.580Z,40.38
2022-12-11T19:59:17.924Z,37.40
2022-12-11T20:01:48.259Z,36.58
2022-12-11T20:04:17.241Z,33.63
2022-12-11T20:06:46.770Z,34.72
2022-12-11T20:09:17.056Z,32.70
2022-12-11T20:11:45.331Z,36.85
2022-12-11T20:14:23.936Z,32.40
2022-12-11T20:17:12.123Z,38.63
2022-12-11T20:19:43.110Z,32.33
2022-12-11T20:22:10.296Z,35.90
2022-12-11T20:24:37.740Z,38.72
2022-12-11T20:27:05.192Z,40.70
2022-12-11T20:29:32.582Z,40.13
2022-12-11T20:32:00.550Z,39.90
2022-12-11T20:34:27.907Z,39.22
2022-12-11T20:36:58.803Z,42.70
2022-12-11T20:39:26.597Z,40.33
2022-12-11T20:41:53.483Z,39.17
2022-12-11T20:44:20.479Z,44.83
2022-12-11T20:46:53.338Z,37.45
2022-12-11T20:49:22.572Z,38.28
2022-12-11T20:51:52.421Z,39.67
2022-12-11T20:54:19.398Z,37.17
2022-12-11T20:56:48.844Z,38.33
2022-12-11T20:59:15.619Z,43.75
2022-12-11T21:01:45.016Z,44.90
2022-12-11T21:04:12.236Z,41.65
2022-12-11T21:06:40.673Z,35.30
2022-12-11T21:09:20.023Z,36.45
2022-12-11T21:11:46.819Z,40.15
2022-12-11T21:14:14.963Z,38.55
2022-12-11T21:16:42.312Z,38.25
2022-12-11T21:19:16.496Z,38.28
2022-12-11T21:21:46.878Z,35.75
2022-12-11T21:24:20.297Z,39.83
2022-12-11T21:26:49.960Z,36.95
2022-12-11T21:29:18.124Z,34.65
2022-12-11T21:34:14.603Z,33.95
2022-12-11T21:36:41.337Z,38.00
2022-12-11T21:39:12.469Z,30.35
2022-12-11T21:41:40.654Z,36.25
2022-12-11T21:46:59.321Z,35.60
2022-12-11T21:49:26.179Z,40.20
2022-12-11T21:51:52.889Z,35.45
2022-12-11T21:54:19.902Z,33.72
2022-12-11T21:56:47.088Z,35.95
2022-12-11T21:59:16.594Z,35.92
2022-12-11T22:01:48.251Z,35.53
2022-12-11T22:04:16.238Z,35.22
2022-12-11T22:06:43.807Z,35.55
2022-12-11T22:09:14.506Z,36.93
2022-12-11T22:11:42.518Z,35.78
2022-12-11T22:14:12.800Z,29.17
2022-12-11T22:16:40.998Z,30.23
2022-12-11T22:19:07.970Z,34.15
2022-12-11T22:21:34.983Z,33.70
2022-12-11T22:24:02.622Z,35.70
2022-12-11T22:26:29.880Z,31.98
2022-12-11T22:28:57.092Z,36.38
2022-12-11T22:31:25.951Z,34.90
2022-12-11T22:33:56.467Z,30.20
2022-12-11T22:36:26.077Z,31.52
2022-12-11T22:38:53.187Z,33.65
2022-12-11T22:41:22.603Z,28.77
2022-12-11T22:43:49.765Z,25.63
2022-12-11T22:46:25.738Z,27.83
2022-12-11T22:48:55.709Z,28.50
2022-12-11T22:51:25.432Z,27.17
2022-12-11T22:53:54.612Z,28.35
2022-12-11T22:56:21.331Z,27.45
2022-12-11T22:58:53.389Z,27.85
2022-12-11T23:01:22.786Z,30.70
2022-12-11T23:03:49.971Z,25.05
2022-12-11T23:06:22.578Z,26.10
2022-12-11T23:08:49.501Z,27.83
2022-12-11T23:11:17.849Z,30.48
2022-12-11T23:13:46.504Z,30.33
2022-12-11T23:16:13.345Z,30.85
2022-12-11T23:18:40.118Z,30.83
2022-12-11T23:21:07.822Z,35.08
2022-12-11T23:23:37.524Z,37.17
2022-12-11T23:26:05.667Z,32.03
2022-12-11T23:28:34.013Z,35.90
2022-12-11T23:31:03.494Z,31.30
2022-12-11T23:33:30.238Z,30.85
2022-12-11T23:36:03.842Z,32.40
2022-12-11T23:38:30.677Z,31.70
2022-12-11T23:40:59.993Z,31.38
2022-12-11T23:43:26.882Z,34.08
2022-12-11T23:45:53.727Z,37.20
2022-12-11T23:48:23.825Z,31.95
2022-12-11T23:50:50.782Z,28.67
2022-12-11T23:53:20.133Z,31.23
2022-12-11T23:55:47.048Z,31.55
2022-12-11T23:58:13.993Z,32.17
